Bogart, GA (30622)

1:53 AM EDT on May 01, 2017 (GMT -0400)
The West Side of Athens-Clarke County | | Change Station

Elev 715 ft 33.95 °N, 83.47 °W | Updated 2 seconds ago

Partly Cloudy
Partly Cloudy
73.5 °F
Feels Like 73 °F
N
1.0
Wind Variable Wind from East
Gusts 9.0 mph

Today
High -- | Low -- °F
--% Chance of Precip.
Yesterday
High -- | Low -- °F
Precip. -- in
Pressure 30.04 in
Visibility 10.0 miles
Clouds Clear
Heat Index 73 °F
Dew Point 69 °F
Humidity 85%
Rainfall 0.00 in
Snow Depth Not available.
6:44 AM 8:18 PM
Waxing Crescent, 30% visible
METAR KWDR 010435Z AUTO 15005KT 10SM CLR 23/19 A3004 RMK AO1
Pressure 30.04 in
Visibility 10.0 miles
Clouds Clear
Heat Index 73 °F
Dew Point 69 °F
Humidity 85%
Rainfall 0.00 in
Snow Depth Not available.
6:44 AM 8:18 PM
Waxing Crescent, 30% visible
METAR KWDR 010435Z AUTO 15005KT 10SM CLR 23/19 A3004 RMK AO1

Get Severe Weather Alerts

Thanks for signing up!

Be on the lookout for a verification email in your inbox.

You'll start receiving the daily forecast at 8 AM.

×

10-Day Weather Forecast

Almanac

Astronomy

May. 01, 2017 Rise Set
Actual Time
Civil Twilight
Nautical Twilight
Astronomical Twilight
Moon
Length of Visible Light
Length of Day
Tomorrow will be .
, % of the Moon is Illuminated

Today's Extremes

State Highs State Lows

Community

WunderPhotos

WunderBlog® & News

Nearby

Air Quality

  Air Quality AQ Index Pollutant
Not available.

Snow Depth

Station Depth Elevation

Earthquake Activity

City Distance Mag. Time & Date
Minimum magnitude displayed is 2.5.

Coastal Water Temperatures

Place Temperature

Stations

Nearby Weather Stations

Station Location Temp. Windchill Dew Point Humidity Wind Precip. Elev Updated Type
                   

Watches & Warnings

There are currently no watches in effect.